Andersontown, Pennsylvania
Current Conditions -  °F | °C
As of 1:56 AM on Wednesday 26 Nov 2014 (Local Time) from KCXY Reporting Station
Clear Clear  
Wind Chill: 43°   Ceiling: Unl
Heat Index: 43°   Visibility: 10mi
Dew Point: 31°   Wind: 0mph
Humidity: 62%   Direction: NA
Pressure: 30.19"   Gusts: NA
Location:  40.208°N, 77.0098°W
Report Text: KCXY 260656Z AUTO 00000KT 10SM CLR 06/M01 A3019 RMK AO2 SLP225 T00611006
Loading
Personal Weather Stations






























Interactive Weather Map New forecast layout! Learn more

10-Day Weather Forecast

Advertisements
Track Severe Weather on mobile